Time;durP1;ratioP1;P1;durP2;ratioP2;P2;SDS_P1;SDS_P2;PMS_P1;PMS_P2;Temp;Humidity;BMP_temperature;BMP_pressure;BME280_temperature;BME280_humidity;BME280_pressure;Samples;Min_cycle;Max_cycle;Signal;HPM_P1;HPM_P2
2023/04/25 00:02:25;;;;;;;3.83;3.45;;;;;;;;;;5054884;28;20024;-66
2023/04/25 00:04:51;;;;;;;3.45;3.15;;;;;;;;;;5054981;28;20029;-66
2023/04/25 00:07:17;;;;;;;5.00;3.40;;;;;;;;;;5055148;28;20082;-66
2023/04/25 00:09:43;;;;;;;3.85;3.22;;;;;;;;;;5054685;28;20029;-66
2023/04/25 00:12:08;;;;;;;4.72;3.40;;;;;;;;;;5054815;28;20032;-66
2023/04/25 00:14:35;;;;;;;3.65;3.25;;;;;;;;;;5054316;28;20384;-66
2023/04/25 00:17:01;;;;;;;4.40;2.95;;;;;;;;;;5054608;28;20032;-66
2023/04/25 00:19:28;;;;;;;3.50;3.20;;;;;;;;;;5054603;28;20021;-66
2023/04/25 00:21:56;;;;;;;3.38;3.08;;;;;;;;;;5054606;28;20025;-66
2023/04/25 00:24:22;;;;;;;3.55;3.25;;;;;;;;;;5054789;28;20044;-65
2023/04/25 00:26:47;;;;;;;4.10;3.00;;;;;;;;;;5054510;28;20447;-66
2023/04/25 00:29:13;;;;;;;3.88;3.30;;;;;;;;;;5054633;28;20079;-66
2023/04/25 00:31:38;;;;;;;4.55;3.25;;;;;;;;;;5054715;28;20028;-66
2023/04/25 00:34:04;;;;;;;3.50;3.00;;;;;;;;;;5054338;28;20052;-65
2023/04/25 00:36:30;;;;;;;3.58;3.22;;;;;;;;;;5036456;28;20116;-65
2023/04/25 00:38:56;;;;;;;3.25;2.95;;;;;;;;;;5054209;28;20025;-65
2023/04/25 00:41:22;;;;;;;3.53;2.90;;;;;;;;;;5054123;28;20028;-65
2023/04/25 00:43:49;;;;;;;3.13;2.92;;;;;;;;;;5054334;28;20024;-66
2023/04/25 00:46:14;;;;;;;3.30;2.97;;;;;;;;;;5054108;28;20373;-66
2023/04/25 00:48:40;;;;;;;5.07;3.20;;;;;;;;;;5053988;28;20024;-66
2023/04/25 00:51:06;;;;;;;3.42;2.90;;;;;;;;;;5054062;28;20021;-65
2023/04/25 00:53:32;;;;;;;3.50;3.20;;;;;;;;;;5054000;28;20032;-66
2023/04/25 00:55:58;;;;;;;3.50;3.20;;;;;;;;;;5054232;28;20025;-65
2023/04/25 00:58:24;;;;;;;4.75;2.97;;;;;;;;;;5053758;28;20045;-66
2023/04/25 01:00:51;;;;;;;3.97;3.53;;;;;;;;;;5053930;28;20027;-65
2023/04/25 01:03:19;;;;;;;4.05;3.10;;;;;;;;;;5053626;28;20029;-66
2023/04/25 01:05:45;;;;;;;3.40;3.13;;;;;;;;;;5053745;28;20025;-66
2023/04/25 01:08:13;;;;;;;3.72;2.92;;;;;;;;;;5053590;28;20541;-65
2023/04/25 01:10:39;;;;;;;6.20;3.38;;;;;;;;;;5053577;28;20044;-66
2023/04/25 01:13:04;;;;;;;4.22;3.42;;;;;;;;;;5053848;28;20033;-66
2023/04/25 01:15:30;;;;;;;3.35;3.05;;;;;;;;;;5053466;28;20021;-66
2023/04/25 01:17:57;;;;;;;3.88;3.10;;;;;;;;;;5053444;28;20155;-66
2023/04/25 01:20:24;;;;;;;3.53;3.20;;;;;;;;;;5053355;28;20033;-67
2023/04/25 01:22:53;;;;;;;5.13;3.38;;;;;;;;;;5053183;28;20503;-66
2023/04/25 01:25:19;;;;;;;3.42;3.08;;;;;;;;;;5052648;28;20235;-66
2023/04/25 01:27:45;;;;;;;3.63;3.20;;;;;;;;;;5053055;28;20040;-65
2023/04/25 01:30:11;;;;;;;4.68;3.08;;;;;;;;;;5053289;28;20021;-66
2023/04/25 01:32:39;;;;;;;2.80;2.60;;;;;;;;;;5053440;28;20028;-65
2023/04/25 01:35:09;;;;;;;3.78;3.10;;;;;;;;;;5053400;28;20443;-65
2023/04/25 01:37:41;;;;;;;3.33;3.03;;;;;;;;;;5053440;28;20033;-66
2023/04/25 01:40:09;;;;;;;3.28;2.80;;;;;;;;;;5053172;28;20025;-66
2023/04/25 01:42:36;;;;;;;3.67;2.88;;;;;;;;;;5053191;28;20036;-66
2023/04/25 01:45:02;;;;;;;3.78;2.90;;;;;;;;;;5052960;28;20029;-65
2023/04/25 01:47:28;;;;;;;3.50;3.17;;;;;;;;;;5052948;28;20028;-66
2023/04/25 01:49:53;;;;;;;2.95;2.75;;;;;;;;;;5053227;28;20107;-66
2023/04/25 01:52:19;;;;;;;3.20;2.83;;;;;;;;;;5053107;28;20387;-66
2023/04/25 01:54:45;;;;;;;3.50;2.80;;;;;;;;;;5053108;28;20447;-66
2023/04/25 01:57:11;;;;;;;3.35;3.05;;;;;;;;;;5052583;28;20116;-66
2023/04/25 01:59:37;;;;;;;3.22;2.90;;;;;;;;;;5053052;28;20039;-66
2023/04/25 02:02:03;;;;;;;3.50;3.13;;;;;;;;;;5034847;28;20138;-66
2023/04/25 02:04:30;;;;;;;3.45;3.03;;;;;;;;;;5052856;28;20033;-66
2023/04/25 02:06:55;;;;;;;3.17;2.88;;;;;;;;;;5052563;28;20021;-66
2023/04/25 02:09:21;;;;;;;3.17;2.80;;;;;;;;;;5052670;28;20029;-66
2023/04/25 02:11:47;;;;;;;3.80;3.40;;;;;;;;;;5052773;28;20035;-67
2023/04/25 02:14:12;;;;;;;3.28;2.97;;;;;;;;;;5052493;28;20072;-66
2023/04/25 02:16:38;;;;;;;3.25;2.97;;;;;;;;;;5052516;28;20112;-66
2023/04/25 02:19:04;;;;;;;3.45;3.08;;;;;;;;;;5052455;28;20064;-66
2023/04/25 02:21:30;;;;;;;3.10;2.80;;;;;;;;;;5052722;28;20025;-65
2023/04/25 02:23:56;;;;;;;2.97;2.78;;;;;;;;;;5052362;28;20072;-66
2023/04/25 02:26:23;;;;;;;3.72;3.00;;;;;;;;;;5052349;28;20020;-66
2023/04/25 02:28:49;;;;;;;3.60;3.20;;;;;;;;;;5052323;28;20682;-66
2023/04/25 02:31:15;;;;;;;3.22;2.92;;;;;;;;;;5052536;28;20029;-66
2023/04/25 02:33:40;;;;;;;3.20;2.90;;;;;;;;;;5052253;28;20051;-66
2023/04/25 02:36:07;;;;;;;2.90;2.70;;;;;;;;;;5052334;28;20155;-65
2023/04/25 02:38:32;;;;;;;3.25;2.95;;;;;;;;;;5058611;28;20021;-66
2023/04/25 02:40:57;;;;;;;3.08;2.78;;;;;;;;;;5058877;28;20029;-65
2023/04/25 02:43:23;;;;;;;2.95;2.75;;;;;;;;;;5058850;28;20025;-66
2023/04/25 02:45:49;;;;;;;3.08;2.78;;;;;;;;;;5059008;28;20037;-66
2023/04/25 02:48:14;;;;;;;2.83;2.63;;;;;;;;;;5058930;28;20021;-65
2023/04/25 02:50:40;;;;;;;3.35;3.05;;;;;;;;;;5059076;28;20036;-66
2023/04/25 02:53:05;;;;;;;3.60;3.00;;;;;;;;;;5059034;28;20398;-66
2023/04/25 02:55:31;;;;;;;2.80;2.55;;;;;;;;;;5058789;28;20029;-66
2023/04/25 02:57:56;;;;;;;3.35;3.05;;;;;;;;;;5058640;28;20052;-66
2023/04/25 03:00:22;;;;;;;3.22;3.00;;;;;;;;;;5058686;28;20028;-65
2023/04/25 03:02:48;;;;;;;3.03;2.80;;;;;;;;;;5058607;28;20079;-66
2023/04/25 03:05:13;;;;;;;2.80;2.60;;;;;;;;;;5058833;28;20029;-65
2023/04/25 03:07:39;;;;;;;3.40;2.80;;;;;;;;;;5058927;28;20033;-66
2023/04/25 03:10:06;;;;;;;3.20;2.90;;;;;;;;;;5058556;28;20033;-66
2023/04/25 03:12:32;;;;;;;2.80;2.60;;;;;;;;;;5058959;28;20447;-66
2023/04/25 03:14:57;;;;;;;3.08;2.83;;;;;;;;;;5058650;28;20049;-65
2023/04/25 03:17:23;;;;;;;3.20;2.88;;;;;;;;;;5058886;28;20036;-65
2023/04/25 03:19:49;;;;;;;3.08;2.72;;;;;;;;;;5058794;28;20053;-66
2023/04/25 03:22:14;;;;;;;3.20;2.70;;;;;;;;;;5058563;28;20082;-65
2023/04/25 03:24:40;;;;;;;3.05;2.85;;;;;;;;;;5058660;28;20033;-66
2023/04/25 03:27:06;;;;;;;3.13;2.83;;;;;;;;;;5058821;28;20484;-65
2023/04/25 03:29:31;;;;;;;3.38;2.92;;;;;;;;;;5058749;28;20025;-65
2023/04/25 03:31:57;;;;;;;2.97;2.78;;;;;;;;;;5058452;28;20031;-65
2023/04/25 03:34:23;;;;;;;3.13;2.70;;;;;;;;;;5058426;28;20024;-66
2023/04/25 03:36:49;;;;;;;3.20;2.90;;;;;;;;;;5058417;28;20029;-66
2023/04/25 03:39:15;;;;;;;3.20;2.90;;;;;;;;;;5058339;28;20032;-66
2023/04/25 03:41:41;;;;;;;2.70;2.50;;;;;;;;;;5058608;28;20028;-66
2023/04/25 03:44:06;;;;;;;3.00;2.80;;;;;;;;;;5058226;28;20365;-66
2023/04/25 03:46:32;;;;;;;2.95;2.63;;;;;;;;;;5058378;28;20032;-66
2023/04/25 03:48:59;;;;;;;3.83;2.97;;;;;;;;;;5055711;28;20028;-66
2023/04/25 03:51:25;;;;;;;3.17;2.50;;;;;;;;;;5055066;28;20028;-67
2023/04/25 03:53:51;;;;;;;3.30;3.00;;;;;;;;;;5055029;28;20491;-66
2023/04/25 03:56:17;;;;;;;2.85;2.65;;;;;;;;;;5055012;28;20036;-65
2023/04/25 03:58:43;;;;;;;3.13;2.83;;;;;;;;;;5054716;28;20041;-66
2023/04/25 04:01:09;;;;;;;2.90;2.70;;;;;;;;;;5055024;28;20037;-65
2023/04/25 04:03:38;;;;;;;3.30;3.00;;;;;;;;;;5054773;28;20473;-65
2023/04/25 04:06:05;;;;;;;2.90;2.60;;;;;;;;;;5054867;28;20135;-66
2023/04/25 04:08:31;;;;;;;3.22;2.92;;;;;;;;;;5054693;28;20025;-65
2023/04/25 04:10:58;;;;;;;3.35;3.05;;;;;;;;;;5054745;28;20025;-65
2023/04/25 04:13:26;;;;;;;3.05;2.70;;;;;;;;;;5054673;28;20029;-65
2023/04/25 04:15:51;;;;;;;3.17;2.70;;;;;;;;;;5054738;28;20025;-66
2023/04/25 04:18:17;;;;;;;2.83;2.63;;;;;;;;;;5036965;28;20025;-65
2023/04/25 04:20:42;;;;;;;2.88;2.58;;;;;;;;;;5054597;28;20044;-66
2023/04/25 04:23:08;;;;;;;2.90;2.60;;;;;;;;;;5054491;28;20021;-66
2023/04/25 04:25:34;;;;;;;3.22;2.92;;;;;;;;;;5054416;28;20075;-66
2023/04/25 04:28:00;;;;;;;3.05;2.75;;;;;;;;;;5054691;28;20041;-65
2023/04/25 04:30:29;;;;;;;2.83;2.63;;;;;;;;;;5054396;28;20020;-66
2023/04/25 04:32:55;;;;;;;3.28;2.90;;;;;;;;;;5054235;28;20546;-65
2023/04/25 04:35:22;;;;;;;3.15;2.80;;;;;;;;;;5054571;28;20383;-66
2023/04/25 04:37:48;;;;;;;3.10;2.80;;;;;;;;;;5054083;28;20464;-66
2023/04/25 04:40:17;;;;;;;2.80;2.60;;;;;;;;;;5054235;28;20048;-66
2023/04/25 04:42:43;;;;;;;3.17;2.90;;;;;;;;;;5054262;28;20051;-66
2023/04/25 04:45:10;;;;;;;2.97;2.78;;;;;;;;;;5054086;28;20075;-66
2023/04/25 04:47:36;;;;;;;3.67;2.75;;;;;;;;;;5054384;28;20385;-66
2023/04/25 04:50:03;;;;;;;2.85;2.55;;;;;;;;;;5053964;28;20028;-65
2023/04/25 04:52:29;;;;;;;4.72;3.00;;;;;;;;;;5052944;28;20087;-65
2023/04/25 04:54:55;;;;;;;3.00;2.70;;;;;;;;;;5053815;28;20028;-65
2023/04/25 04:57:21;;;;;;;3.17;2.90;;;;;;;;;;5053610;28;20052;-66
2023/04/25 04:59:46;;;;;;;3.28;2.80;;;;;;;;;;5053679;28;20029;-66
2023/04/25 05:02:12;;;;;;;2.83;2.63;;;;;;;;;;5054046;28;20472;-67
2023/04/25 05:04:37;;;;;;;3.22;2.67;;;;;;;;;;5053499;28;20420;-66
2023/04/25 05:07:03;;;;;;;3.72;2.60;;;;;;;;;;5052394;28;20056;-66
2023/04/25 05:09:28;;;;;;;2.63;2.42;;;;;;;;;;5053509;28;20020;-66
2023/04/25 05:11:54;;;;;;;2.60;2.40;;;;;;;;;;5053559;28;20025;-66
2023/04/25 05:14:21;;;;;;;2.83;2.53;;;;;;;;;;5053695;28;20021;-66
2023/04/25 05:16:47;;;;;;;2.90;2.70;;;;;;;;;;5053458;28;20021;-65
2023/04/25 05:19:13;;;;;;;3.60;2.90;;;;;;;;;;5053680;28;20078;-67
2023/04/25 05:21:38;;;;;;;2.80;2.60;;;;;;;;;;5052198;28;20036;-66
2023/04/25 05:24:04;;;;;;;2.90;2.60;;;;;;;;;;5053217;28;20270;-66
2023/04/25 05:26:30;;;;;;;3.08;2.72;;;;;;;;;;5053147;28;20432;-66
2023/04/25 05:28:57;;;;;;;2.90;2.70;;;;;;;;;;5053387;28;20377;-66
2023/04/25 05:31:23;;;;;;;2.70;2.50;;;;;;;;;;5053163;28;20025;-65
2023/04/25 05:33:49;;;;;;;4.07;2.80;;;;;;;;;;5053363;28;20025;-66
2023/04/25 05:36:15;;;;;;;2.90;2.70;;;;;;;;;;5052996;28;20078;-67
2023/04/25 05:38:40;;;;;;;2.95;2.70;;;;;;;;;;5048454;28;20032;-67
2023/04/25 05:41:07;;;;;;;3.85;2.75;;;;;;;;;;5072913;28;20046;-66
2023/04/25 05:43:32;;;;;;;3.20;2.60;;;;;;;;;;5048031;28;20048;-66
2023/04/25 05:45:58;;;;;;;2.92;2.72;;;;;;;;;;5053905;28;20071;-66
2023/04/25 05:48:24;;;;;;;2.72;2.53;;;;;;;;;;5052739;28;20013;-67
2023/04/25 05:50:51;;;;;;;2.70;2.50;;;;;;;;;;5053127;28;20033;-66
2023/04/25 05:53:17;;;;;;;3.42;2.70;;;;;;;;;;5053046;28;20021;-66
2023/04/25 05:55:43;;;;;;;2.85;2.47;;;;;;;;;;5052476;28;20029;-65
2023/04/25 05:58:08;;;;;;;2.90;2.70;;;;;;;;;;5052372;28;20048;-65
2023/04/25 06:00:34;;;;;;;2.90;2.70;;;;;;;;;;5053029;28;20025;-67
2023/04/25 06:02:59;;;;;;;2.95;2.65;;;;;;;;;;5052521;28;20033;-66
2023/04/25 06:05:25;;;;;;;3.00;2.70;;;;;;;;;;5052863;28;20465;-65
2023/04/25 06:07:51;;;;;;;3.10;2.80;;;;;;;;;;5034988;28;20484;-64
2023/04/25 06:10:16;;;;;;;2.78;2.58;;;;;;;;;;5052755;28;20534;-65
2023/04/25 06:12:42;;;;;;;3.30;2.70;;;;;;;;;;5051939;28;20017;-66
2023/04/25 06:15:08;;;;;;;3.00;2.70;;;;;;;;;;5052328;28;20025;-66
2023/04/25 06:17:33;;;;;;;3.00;2.80;;;;;;;;;;5052406;28;20027;-65
2023/04/25 06:19:59;;;;;;;3.17;2.83;;;;;;;;;;5052357;28;20033;-64
2023/04/25 06:22:24;;;;;;;2.92;2.65;;;;;;;;;;5052329;28;20029;-65
2023/04/25 06:24:50;;;;;;;2.97;2.67;;;;;;;;;;5052195;28;20045;-64
2023/04/25 06:27:15;;;;;;;3.15;2.85;;;;;;;;;;5052209;28;20108;-68
2023/04/25 06:29:41;;;;;;;2.75;2.55;;;;;;;;;;5052330;28;20029;-66
2023/04/25 06:32:07;;;;;;;2.92;2.70;;;;;;;;;;5034416;28;20028;-68
2023/04/25 06:34:32;;;;;;;3.00;2.70;;;;;;;;;;5052127;28;20036;-66
2023/04/25 06:36:58;;;;;;;3.00;2.80;;;;;;;;;;5052304;28;20028;-66
2023/04/25 06:39:25;;;;;;;2.63;2.42;;;;;;;;;;5052424;28;20473;-67
2023/04/25 06:41:50;;;;;;;2.97;2.75;;;;;;;;;;5051841;28;20021;-67
2023/04/25 06:44:16;;;;;;;2.70;2.50;;;;;;;;;;5052107;28;20036;-66
2023/04/25 06:46:42;;;;;;;2.92;2.70;;;;;;;;;;5057003;28;20054;-66
2023/04/25 06:49:07;;;;;;;3.03;2.72;;;;;;;;;;5067775;28;20020;-67
2023/04/25 06:51:33;;;;;;;3.25;2.50;;;;;;;;;;5064622;28;20029;-69
2023/04/25 06:53:59;;;;;;;2.55;2.35;;;;;;;;;;5070777;28;20025;-66
2023/04/25 06:56:24;;;;;;;2.60;2.40;;;;;;;;;;5049370;28;20020;-68
2023/04/25 06:58:50;;;;;;;3.05;2.75;;;;;;;;;;5059298;28;20045;-66
2023/04/25 07:01:16;;;;;;;2.67;2.47;;;;;;;;;;5034304;28;20025;-68
2023/04/25 07:03:41;;;;;;;3.47;2.92;;;;;;;;;;5051709;28;20384;-64
2023/04/25 07:06:07;;;;;;;4.28;2.90;;;;;;;;;;5061082;28;20032;-65
2023/04/25 07:08:32;;;;;;;6.03;2.92;;;;;;;;;;5052312;28;20036;-66
2023/04/25 07:10:58;;;;;;;6.45;3.60;;;;;;;;;;5056730;28;20033;-68
2023/04/25 07:13:23;;;;;;;4.85;2.75;;;;;;;;;;5050257;28;20104;-67
2023/04/25 07:15:49;;;;;;;3.30;2.58;;;;;;;;;;5050272;28;20075;-68
2023/04/25 07:18:15;;;;;;;2.97;2.67;;;;;;;;;;5052767;28;20028;-69
2023/04/25 07:20:41;;;;;;;4.00;2.80;;;;;;;;;;5050076;28;20029;-65
2023/04/25 07:23:07;;;;;;;12.60;2.80;;;;;;;;;;5050243;28;20024;-67
2023/04/25 07:25:32;;;;;;;4.65;2.83;;;;;;;;;;5053319;28;20360;-66
2023/04/25 07:27:58;;;;;;;14.85;3.70;;;;;;;;;;5053898;28;20025;-66
2023/04/25 07:30:23;;;;;;;6.72;2.78;;;;;;;;;;5073446;28;20035;-66
2023/04/25 07:32:50;;;;;;;4.05;2.60;;;;;;;;;;5073735;28;20029;-66
2023/04/25 07:35:16;;;;;;;10.32;3.60;;;;;;;;;;5068432;28;20020;-66
2023/04/25 07:37:42;;;;;;;9.38;3.40;;;;;;;;;;5073576;28;20361;-66
2023/04/25 07:40:09;;;;;;;8.15;3.70;;;;;;;;;;5067487;28;20426;-68
2023/04/25 07:42:35;;;;;;;11.48;3.60;;;;;;;;;;5053430;28;20403;-67
2023/04/25 07:45:01;;;;;;;16.23;4.82;;;;;;;;;;5053340;28;20107;-67
2023/04/25 07:47:29;;;;;;;9.52;4.45;;;;;;;;;;5068889;28;20114;-66
2023/04/25 07:49:56;;;;;;;39.55;8.30;;;;;;;;;;5058742;28;20021;-66
2023/04/25 07:52:21;;;;;;;11.27;5.05;;;;;;;;;;5057058;28;20032;-66
2023/04/25 07:54:48;;;;;;;12.10;6.22;;;;;;;;;;5042280;28;20479;-67
2023/04/25 07:57:13;;;;;;;13.98;5.65;;;;;;;;;;5060274;28;20103;-67
2023/04/25 07:59:39;;;;;;;17.85;6.10;;;;;;;;;;5059067;28;20115;-67
2023/04/25 08:02:05;;;;;;;18.35;7.68;;;;;;;;;;5041271;28;20074;-66
2023/04/25 08:04:31;;;;;;;20.85;8.70;;;;;;;;;;5060880;28;20033;-67
2023/04/25 08:06:56;;;;;;;28.35;8.73;;;;;;;;;;5072939;28;20500;-68
2023/04/25 08:09:22;;;;;;;26.48;9.15;;;;;;;;;;5073086;28;20028;-68
2023/04/25 08:11:48;;;;;;;30.05;12.30;;;;;;;;;;5072985;28;20028;-66
2023/04/25 08:14:14;;;;;;;39.38;11.13;;;;;;;;;;5072946;28;20025;-67
2023/04/25 08:16:40;;;;;;;39.80;13.63;;;;;;;;;;5072837;28;20033;-67
2023/04/25 08:19:06;;;;;;;41.22;11.70;;;;;;;;;;5072896;28;20071;-65
2023/04/25 08:21:32;;;;;;;37.47;12.55;;;;;;;;;;5072671;28;20040;-65
2023/04/25 08:23:58;;;;;;;30.15;11.80;;;;;;;;;;5072553;28;20111;-67
2023/04/25 08:26:24;;;;;;;30.25;12.60;;;;;;;;;;5072787;28;20162;-66
2023/04/25 08:28:51;;;;;;;30.88;10.43;;;;;;;;;;5048694;28;20082;-68
2023/04/25 08:31:17;;;;;;;32.35;11.80;;;;;;;;;;5065080;28;20029;-68
2023/04/25 08:33:44;;;;;;;31.25;12.32;;;;;;;;;;5063611;28;20033;-67
2023/04/25 08:36:10;;;;;;;34.65;13.90;;;;;;;;;;5054431;28;20036;-67
2023/04/25 08:38:37;;;;;;;38.10;14.68;;;;;;;;;;5052764;28;20050;-65
2023/04/25 08:41:03;;;;;;;35.00;15.30;;;;;;;;;;5052600;28;20523;-67
2023/04/25 08:43:30;;;;;;;43.63;13.95;;;;;;;;;;5052341;28;20381;-67
2023/04/25 08:46:03;;;;;;;39.40;12.60;;;;;;;;;;5052386;28;20031;-66
2023/04/25 08:48:32;;;;;;;36.40;13.60;;;;;;;;;;5052275;28;20027;-67
2023/04/25 08:50:58;;;;;;;37.30;14.25;;;;;;;;;;5066710;28;20025;-66
2023/04/25 08:53:29;;;;;;;51.95;13.77;;;;;;;;;;5036152;28;20032;-68
2023/04/25 08:55:56;;;;;;;34.03;13.35;;;;;;;;;;5036118;28;20033;-65
2023/04/25 08:58:23;;;;;;;35.42;13.52;;;;;;;;;;5051879;28;20053;-66
2023/04/25 09:00:49;;;;;;;39.75;12.60;;;;;;;;;;5051965;28;20037;-66
2023/04/25 09:03:16;;;;;;;30.35;12.80;;;;;;;;;;5051865;28;20028;-65
2023/04/25 09:05:41;;;;;;;52.67;13.55;;;;;;;;;;5051889;28;20040;-66
2023/04/25 09:08:07;;;;;;;37.83;12.40;;;;;;;;;;5052125;28;20025;-65
2023/04/25 09:10:34;;;;;;;43.22;13.13;;;;;;;;;;5051900;28;20444;-65
2023/04/25 09:13:12;;;;;;;46.17;17.40;;;;;;;;;;5051750;28;20370;-64
2023/04/25 09:15:51;;;;;;;35.38;13.95;;;;;;;;;;5051850;28;20738;-65
2023/04/25 09:18:27;;;;;;;29.02;13.50;;;;;;;;;;5051675;28;20032;-66
2023/04/25 09:20:58;;;;;;;27.08;12.32;;;;;;;;;;5068569;28;20074;-66
2023/04/25 09:23:24;;;;;;;42.83;14.05;;;;;;;;;;5071544;28;20040;-65
2023/04/25 09:25:52;;;;;;;25.33;13.82;;;;;;;;;;5071731;28;20111;-64
2023/04/25 09:28:27;;;;;;;32.65;14.68;;;;;;;;;;5071410;28;20107;-63
2023/04/25 09:31:00;;;;;;;29.13;14.65;;;;;;;;;;5071747;28;20033;-66
2023/04/25 09:33:33;;;;;;;30.52;14.20;;;;;;;;;;5071444;28;20030;-64
2023/04/25 09:36:16;;;;;;;40.78;12.73;;;;;;;;;;5071375;28;20111;-63
2023/04/25 09:38:44;;;;;;;25.73;12.25;;;;;;;;;;5071246;28;20127;-67
2023/04/25 09:41:10;;;;;;;30.52;12.20;;;;;;;;;;5071389;28;20068;-64
2023/04/25 09:43:36;;;;;;;28.48;12.15;;;;;;;;;;5071054;28;20056;-64
2023/04/25 09:46:02;;;;;;;27.63;11.35;;;;;;;;;;5070307;28;20063;-65
2023/04/25 09:48:29;;;;;;;27.55;11.48;;;;;;;;;;5058831;28;20484;-67
2023/04/25 09:51:13;;;;;;;22.67;10.68;;;;;;;;;;5038107;28;20044;-66
2023/04/25 09:53:50;;;;;;;41.42;10.07;;;;;;;;;;5071293;28;20048;-66
2023/04/25 09:56:16;;;;;;;24.20;9.13;;;;;;;;;;5071041;28;20020;-66
2023/04/25 09:58:42;;;;;;;38.55;10.35;;;;;;;;;;5052958;28;20070;-66
2023/04/25 10:01:10;;;;;;;29.50;8.38;;;;;;;;;;5070886;28;20556;-64
2023/04/25 10:03:40;;;;;;;36.33;9.20;;;;;;;;;;5070868;28;20033;-64
2023/04/25 10:06:12;;;;;;;21.35;8.73;;;;;;;;;;5071078;28;20029;-67
2023/04/25 10:08:38;;;;;;;23.27;8.18;;;;;;;;;;5071234;28;20116;-64
2023/04/25 10:11:06;;;;;;;24.92;8.05;;;;;;;;;;5070746;28;20451;-68
2023/04/25 10:13:33;;;;;;;18.75;7.97;;;;;;;;;;5071207;28;20063;-65
2023/04/25 10:16:00;;;;;;;17.83;7.38;;;;;;;;;;5070750;28;20504;-67
2023/04/25 10:18:27;;;;;;;18.25;7.63;;;;;;;;;;5071159;28;20033;-65
2023/04/25 10:20:56;;;;;;;19.02;6.63;;;;;;;;;;5070655;28;20029;-70
2023/04/25 10:23:22;;;;;;;15.15;6.30;;;;;;;;;;5070963;28;20017;-66
2023/04/25 10:25:49;;;;;;;20.73;6.45;;;;;;;;;;5070615;28;20020;-67
2023/04/25 10:28:14;;;;;;;25.63;6.43;;;;;;;;;;5070673;28;20484;-68
2023/04/25 10:31:00;;;;;;;13.10;5.30;;;;;;;;;;5070623;28;20055;-66
2023/04/25 10:33:37;;;;;;;15.95;5.75;;;;;;;;;;5070680;28;20024;-68
2023/04/25 10:36:14;;;;;;;16.00;5.68;;;;;;;;;;5070551;28;20488;-63
2023/04/25 10:38:42;;;;;;;18.70;5.88;;;;;;;;;;5070795;28;20689;-65
2023/04/25 10:41:09;;;;;;;13.10;5.50;;;;;;;;;;5070570;28;20028;-64
2023/04/25 10:43:43;;;;;;;17.13;5.70;;;;;;;;;;5070566;28;20029;-61
2023/04/25 10:46:23;;;;;;;16.30;5.35;;;;;;;;;;5070743;28;20532;-65
2023/04/25 10:48:57;;;;;;;14.98;5.10;;;;;;;;;;5070395;28;20025;-64
2023/04/25 10:51:31;;;;;;;16.02;5.60;;;;;;;;;;5070463;28;20074;-65
2023/04/25 10:54:08;;;;;;;10.68;5.20;;;;;;;;;;5070711;28;20070;-63
2023/04/25 10:56:44;;;;;;;11.90;5.57;;;;;;;;;;5070273;28;20086;-64
2023/04/25 10:59:20;;;;;;;9.23;4.82;;;;;;;;;;5072782;28;20052;-64
2023/04/25 11:01:47;;;;;;;9.35;4.72;;;;;;;;;;5074652;28;20131;-63
2023/04/25 11:04:40;;;;;;;9.65;5.30;;;;;;;;;;5074447;28;20029;-63
2023/04/25 11:07:38;;;;;;;7.65;4.70;;;;;;;;;;5070474;28;20126;-63
2023/04/25 11:10:04;;;;;;;10.75;5.20;;;;;;;;;;5073044;28;20036;-64
2023/04/25 11:12:33;;;;;;;10.63;5.10;;;;;;;;;;5074167;28;20146;-64
2023/04/25 11:15:04;;;;;;;9.75;4.60;;;;;;;;;;5074384;28;20028;-64
2023/04/25 11:17:30;;;;;;;9.60;4.90;;;;;;;;;;5074449;28;20032;-63
2023/04/25 11:19:57;;;;;;;31.23;5.53;;;;;;;;;;5074230;28;20465;-67
2023/04/25 11:22:23;;;;;;;8.70;4.75;;;;;;;;;;5055758;28;20067;-64
2023/04/25 11:24:48;;;;;;;13.07;4.68;;;;;;;;;;5073806;28;20625;-64
2023/04/25 11:27:14;;;;;;;13.20;4.82;;;;;;;;;;5072150;28;20042;-66
2023/04/25 11:29:41;;;;;;;16.00;5.05;;;;;;;;;;5066942;28;20111;-64
2023/04/25 11:32:07;;;;;;;10.55;4.90;;;;;;;;;;5062809;28;20103;-64
2023/04/25 11:34:33;;;;;;;11.00;5.22;;;;;;;;;;5068567;28;20036;-67
2023/04/25 11:37:01;;;;;;;11.55;5.25;;;;;;;;;;5071664;28;20044;-65
2023/04/25 11:39:27;;;;;;;14.50;5.07;;;;;;;;;;5041074;28;20040;-64
2023/04/25 11:41:53;;;;;;;11.25;5.15;;;;;;;;;;5053537;28;20028;-64
2023/04/25 11:44:20;;;;;;;19.05;5.35;;;;;;;;;;5053449;28;20099;-67
2023/04/25 11:46:46;;;;;;;13.73;5.38;;;;;;;;;;5053546;28;20108;-67
2023/04/25 11:49:13;;;;;;;14.75;5.70;;;;;;;;;;5043662;28;20074;-66
2023/04/25 11:51:40;;;;;;;11.40;6.13;;;;;;;;;;5040421;28;20021;-66
2023/04/25 11:54:06;;;;;;;12.68;6.43;;;;;;;;;;5058988;28;20094;-65
2023/04/25 11:56:32;;;;;;;15.70;6.80;;;;;;;;;;5065129;28;20484;-66
2023/04/25 11:59:05;;;;;;;25.65;7.57;;;;;;;;;;5068215;28;20086;-67
2023/04/25 12:01:36;;;;;;;20.77;12.63;;;;;;;;;;5071918;28;20419;-65
2023/04/25 12:04:32;;;;;;;20.00;9.98;;;;;;;;;;5073176;28;20043;-65
2023/04/25 12:06:57;;;;;;;20.13;10.00;;;;;;;;;;5051973;28;20105;-64
2023/04/25 12:09:31;;;;;;;25.88;12.15;;;;;;;;;;5072292;28;20033;-67
2023/04/25 12:11:58;;;;;;;20.05;10.85;;;;;;;;;;5071070;28;20032;-64
2023/04/25 12:14:29;;;;;;;17.30;10.43;;;;;;;;;;5072808;28;20352;-66
2023/04/25 12:17:00;;;;;;;26.20;11.05;;;;;;;;;;5072842;28;20582;-65
2023/04/25 12:19:31;;;;;;;30.67;12.13;;;;;;;;;;5054918;28;20090;-66
2023/04/25 12:21:56;;;;;;;22.15;11.10;;;;;;;;;;5055576;28;20024;-67
2023/04/25 12:24:25;;;;;;;27.65;11.95;;;;;;;;;;5068977;28;20032;-65
2023/04/25 12:26:59;;;;;;;32.33;12.07;;;;;;;;;;5063775;28;20032;-65
2023/04/25 12:29:27;;;;;;;20.92;10.23;;;;;;;;;;5060448;28;20503;-65
2023/04/25 12:31:54;;;;;;;24.38;12.55;;;;;;;;;;5058131;28;20393;-63
2023/04/25 12:34:20;;;;;;;37.80;13.65;;;;;;;;;;5071708;28;20048;-67
2023/04/25 12:36:48;;;;;;;43.83;15.10;;;;;;;;;;5072021;28;20115;-66
2023/04/25 12:39:19;;;;;;;43.50;15.98;;;;;;;;;;5061393;28;20083;-65
2023/04/25 12:41:45;;;;;;;30.38;12.07;;;;;;;;;;5051632;28;20136;-64
2023/04/25 12:44:11;;;;;;;34.47;11.50;;;;;;;;;;5036309;28;20433;-66
2023/04/25 12:46:37;;;;;;;28.98;11.57;;;;;;;;;;5033568;28;20029;-66
2023/04/25 12:49:04;;;;;;;40.25;14.77;;;;;;;;;;5067770;28;20067;-65
2023/04/25 12:51:30;;;;;;;35.17;13.70;;;;;;;;;;5071687;28;20032;-65
2023/04/25 12:53:56;;;;;;;41.03;12.73;;;;;;;;;;5071632;28;20547;-65
2023/04/25 12:56:22;;;;;;;37.72;12.30;;;;;;;;;;5071450;28;20032;-66
2023/04/25 12:58:48;;;;;;;38.08;11.70;;;;;;;;;;5068400;28;20530;-67
2023/04/25 13:01:14;;;;;;;39.08;13.07;;;;;;;;;;5072307;28;20426;-65
2023/04/25 13:03:40;;;;;;;30.42;10.65;;;;;;;;;;5072360;28;20040;-64
2023/04/25 13:06:06;;;;;;;31.52;9.60;;;;;;;;;;5070932;28;20456;-67
2023/04/25 13:08:32;;;;;;;28.75;9.25;;;;;;;;;;5071666;28;20048;-65
2023/04/25 13:10:58;;;;;;;22.05;8.60;;;;;;;;;;5053177;28;20315;-66
2023/04/25 13:13:23;;;;;;;35.90;8.70;;;;;;;;;;5071671;28;20029;-65
2023/04/25 13:15:49;;;;;;;20.75;7.35;;;;;;;;;;5071966;28;20040;-65
2023/04/25 13:18:15;;;;;;;13.32;6.82;;;;;;;;;;5072166;28;20024;-64
2023/04/25 13:20:40;;;;;;;21.08;7.75;;;;;;;;;;5071953;28;20059;-65
2023/04/25 13:23:06;;;;;;;14.32;6.03;;;;;;;;;;5071813;28;21974;-65
2023/04/25 13:25:31;;;;;;;20.42;6.20;;;;;;;;;;5071737;28;20029;-65
2023/04/25 13:27:57;;;;;;;17.50;5.55;;;;;;;;;;5071754;28;20021;-64
2023/04/25 13:30:23;;;;;;;16.77;5.90;;;;;;;;;;5071913;28;20107;-65
2023/04/25 13:32:48;;;;;;;15.63;5.53;;;;;;;;;;5069375;28;20046;-64
2023/04/25 13:35:15;;;;;;;98.22;11.27;;;;;;;;;;5057243;28;20031;-65
2023/04/25 13:37:40;;;;;;;111.85;11.75;;;;;;;;;;5051498;28;20033;-66
2023/04/25 13:40:11;;;;;;;168.77;15.00;;;;;;;;;;5051869;28;20029;-65
2023/04/25 13:42:40;;;;;;;105.22;12.05;;;;;;;;;;5051351;28;20358;-66
2023/04/25 13:45:07;;;;;;;96.95;12.23;;;;;;;;;;5051404;28;20124;-65
2023/04/25 13:47:33;;;;;;;94.93;10.27;;;;;;;;;;5051266;28;20037;-64
2023/04/25 13:49:59;;;;;;;63.83;8.65;;;;;;;;;;5051364;28;20024;-65
2023/04/25 13:52:27;;;;;;;56.10;9.38;;;;;;;;;;5051571;28;20075;-66
2023/04/25 13:54:53;;;;;;;46.95;8.10;;;;;;;;;;5051274;28;20434;-67
2023/04/25 13:57:19;;;;;;;36.75;7.35;;;;;;;;;;5050965;28;20029;-66
2023/04/25 13:59:46;;;;;;;44.90;6.82;;;;;;;;;;5051521;28;20381;-67
2023/04/25 14:02:11;;;;;;;36.83;7.70;;;;;;;;;;5051063;28;20552;-65
2023/04/25 14:04:37;;;;;;;49.95;8.75;;;;;;;;;;5051098;28;20121;-67
2023/04/25 14:07:04;;;;;;;57.78;8.63;;;;;;;;;;5051077;28;20029;-65
2023/04/25 14:09:30;;;;;;;22.67;6.50;;;;;;;;;;5068088;28;20036;-66
2023/04/25 14:11:56;;;;;;;30.05;6.47;;;;;;;;;;5053097;28;20021;-67
2023/04/25 14:14:23;;;;;;;29.60;6.60;;;;;;;;;;5071006;28;20020;-67
2023/04/25 14:16:50;;;;;;;45.35;7.07;;;;;;;;;;5071158;28;20679;-66
2023/04/25 14:19:16;;;;;;;33.20;6.90;;;;;;;;;;5070733;28;20048;-69
2023/04/25 14:21:42;;;;;;;44.80;7.38;;;;;;;;;;5069840;28;20529;-66
2023/04/25 14:24:11;;;;;;;30.02;8.88;;;;;;;;;;5061412;28;20059;-66
2023/04/25 14:26:36;;;;;;;42.65;8.10;;;;;;;;;;5058264;28;20047;-66
2023/04/25 14:29:05;;;;;;;21.27;6.32;;;;;;;;;;5068295;28;20021;-66
2023/04/25 14:31:31;;;;;;;11.38;5.32;;;;;;;;;;5070665;28;20060;-67
2023/04/25 14:33:56;;;;;;;30.80;5.57;;;;;;;;;;5070672;28;20071;-65